Time;durP1;ratioP1;P1;durP2;ratioP2;P2;SDS_P1;SDS_P2;PMS_P1;PMS_P2;Temp;Humidity;BMP_temperature;BMP_pressure;BME280_temperature;BME280_humidity;BME280_pressure;Samples;Min_cycle;Max_cycle;Signal;HPM_P1;HPM_P2
2022/09/03 00:01:29;;;;;;;;;;;;;;;;;;5077808;28;19967;-75
2022/09/03 00:03:57;;;;;;;;;;;;;;;;;;5092276;28;20071;-77
2022/09/03 00:06:27;;;;;;;;;;;;;;;;;;5092531;28;19978;-75
2022/09/03 00:08:58;;;;;;;;;;;;;;;;;;5092341;28;19934;-75
2022/09/03 00:11:27;;;;;;;;;;;;;;;;;;5092290;28;19970;-76
2022/09/03 00:13:57;;;;;;;;;;;;;;;;;;5092297;28;19928;-76
2022/09/03 00:16:26;;;;;;;;;;;;;;;;;;5092291;28;20016;-75
2022/09/03 00:18:58;;;;;;;;;;;;;;;;;;5092557;28;19978;-75
2022/09/03 00:21:27;;;;;;;;;;;;;;;;;;5092184;28;19946;-76
2022/09/03 00:23:55;;;;;;;;;;;;;;;;;;5092300;28;20024;-76
2022/09/03 00:26:25;;;;;;;;;;;;;;;;;;5092383;28;20380;-76
2022/09/03 00:28:57;;;;;;;;;;;;;;;;;;5092032;28;19981;-75
2022/09/03 00:31:27;;;;;;;;;;;;;;;;;;5092169;28;19924;-75
2022/09/03 00:33:57;;;;;;;;;;;;;;;;;;5092279;28;20007;-76
2022/09/03 00:36:27;;;;;;;;;;;;;;;;;;5092379;28;19924;-75
2022/09/03 00:38:54;;;;;;;;;;;;;;;;;;5092277;28;19979;-75
2022/09/03 00:41:28;;;;;;;;;;;;;;;;;;5091880;28;20025;-76
2022/09/03 00:44:04;;;;;;;;;;;;;;;;;;5117856;22;19946;-62
2022/09/03 00:46:35;;;;;;;;;;;;;;;;;;5092360;28;19932;-62
2022/09/03 00:49:13;;;;;;;;;;;;;;;;;;5091876;28;20297;-62
2022/09/03 00:51:43;;;;;;;;;;;;;;;;;;5095410;28;20462;-62
2022/09/03 00:54:13;;;;;;;;;;;;;;;;;;5095964;28;19927;-61
2022/09/03 00:56:42;;;;;;;;;;;;;;;;;;5096174;28;19928;-60
2022/09/03 00:59:18;;;;;;;;;;;;;;;;;;5096073;28;19973;-61
2022/09/03 01:01:49;;;;;;;;;;;;;;;;;;5095699;28;19924;-62
2022/09/03 01:04:25;;;;;;;;;;;;;;;;;;5095436;28;19924;-62
2022/09/03 01:06:57;;;;;;;;;;;;;;;;;;5095721;28;19929;-59
2022/09/03 01:09:29;;;;;;;;;;;;;;;;;;5095324;28;20353;-62
2022/09/03 01:11:59;;;;;;;;;;;;;;;;;;5095943;28;19924;-62
2022/09/03 01:14:31;;;;;;;;;;;;;;;;;;5095575;28;20334;-62
2022/09/03 01:17:02;;;;;;;;;;;;;;;;;;5095421;28;19928;-61
2022/09/03 01:19:46;;;;;;;;;;;;;;;;;;5095446;28;20384;-60
2022/09/03 01:22:23;;;;;;;;;;;;;;;;;;5095464;28;19947;-62
2022/09/03 01:25:12;;;;;;;;;;;;;;;;;;5095624;28;19924;-62
2022/09/03 01:27:45;;;;;;;;;;;;;;;;;;5095621;28;19946;-61
2022/09/03 01:30:17;;;;;;;;;;;;;;;;;;5094974;28;19931;-62
2022/09/03 01:32:47;;;;;;;;;;;;;;;;;;5095309;28;20030;-62
2022/09/03 01:35:19;;;;;;;;;;;;;;;;;;5095096;28;19928;-63
2022/09/03 01:37:52;;;;;;;;;;;;;;;;;;5095247;28;20326;-62
2022/09/03 01:40:23;;;;;;;;;;;;;;;;;;5095240;28;19924;-61
2022/09/03 01:42:54;;;;;;;;;;;;;;;;;;5095211;28;19977;-61
2022/09/03 01:45:43;;;;;;;;;;;;;;;;;;5095074;28;19930;-62
2022/09/03 01:48:23;;;;;;;;;;;;;;;;;;5094858;28;19925;-60
2022/09/03 01:50:53;;;;;;;;;;;;;;;;;;5094652;28;20019;-61
2022/09/03 01:53:29;;;;;;;;;;;;;;;;;;5095223;28;20381;-60
2022/09/03 01:56:08;;;;;;;;;;;;;;;;;;5094738;28;19928;-61
2022/09/03 01:58:37;;;;;;;;;;;;;;;;;;5095000;28;19977;-61
2022/09/03 02:01:09;;;;;;;;;;;;;;;;;;5094122;28;19974;-59
2022/09/03 02:03:37;;;;;;;;;;;;;;;;;;5094134;28;20285;-58
2022/09/03 02:06:06;;;;;;;;;;;;;;;;;;5094553;28;20384;-60
2022/09/03 02:08:33;;;;;;;;;;;;;;;;;;5094487;28;19992;-63
2022/09/03 02:11:01;;;;;;;;;;;;;;;;;;5093889;28;19924;-62
2022/09/03 02:13:29;;;;;;;;;;;;;;;;;;5094663;28;19924;-62
2022/09/03 02:15:58;;;;;;;;;;;;;;;;;;5094235;28;19924;-61
2022/09/03 02:18:29;;;;;;;;;;;;;;;;;;5094571;28;19928;-59
2022/09/03 02:20:57;;;;;;;;;;;;;;;;;;5094066;28;19985;-63
2022/09/03 02:23:24;;;;;;;;;;;;;;;;;;5094090;28;19932;-64
2022/09/03 02:25:52;;;;;;;;;;;;;;;;;;5094280;28;19928;-63
2022/09/03 02:28:19;;;;;;;;;;;;;;;;;;5094298;28;20342;-63
2022/09/03 02:30:45;;;;;;;;;;;;;;;;;;5093827;28;19924;-61
2022/09/03 02:33:12;;;;;;;;;;;;;;;;;;5093912;28;19975;-63
2022/09/03 02:35:40;;;;;;;;;;;;;;;;;;5094086;28;20029;-63
2022/09/03 02:38:11;;;;;;;;;;;;;;;;;;5093942;28;19924;-63
2022/09/03 02:40:38;;;;;;;;;;;;;;;;;;5093820;28;20385;-61
2022/09/03 02:43:06;;;;;;;;;;;;;;;;;;5093899;28;19930;-61
2022/09/03 02:45:32;;;;;;;;;;;;;;;;;;5093975;28;19924;-62
2022/09/03 02:48:00;;;;;;;;;;;;;;;;;;5093673;28;19924;-62
2022/09/03 02:50:26;;;;;;;;;;;;;;;;;;5093358;28;19924;-62
2022/09/03 02:52:55;;;;;;;;;;;;;;;;;;5093947;28;19985;-63
2022/09/03 02:55:21;;;;;;;;;;;;;;;;;;5094002;28;20411;-61
2022/09/03 02:57:48;;;;;;;;;;;;;;;;;;5093575;28;20442;-63
2022/09/03 03:00:15;;;;;;;;;;;;;;;;;;5093471;28;19927;-60
2022/09/03 03:02:41;;;;;;;;;;;;;;;;;;5093430;28;19924;-63
2022/09/03 03:05:09;;;;;;;;;;;;;;;;;;5093540;28;19947;-63
2022/09/03 03:07:37;;;;;;;;;;;;;;;;;;5093450;28;19924;-63
2022/09/03 03:10:06;;;;;;;;;;;;;;;;;;5093412;28;19932;-63
2022/09/03 03:12:33;;;;;;;;;;;;;;;;;;5093458;28;20293;-63
2022/09/03 03:15:00;;;;;;;;;;;;;;;;;;5093187;28;19930;-63
2022/09/03 03:17:27;;;;;;;;;;;;;;;;;;5093170;28;19928;-61
2022/09/03 03:19:54;;;;;;;;;;;;;;;;;;5093142;28;19935;-62
2022/09/03 03:22:20;;;;;;;;;;;;;;;;;;5093187;28;19928;-61
2022/09/03 03:24:49;;;;;;;;;;;;;;;;;;5093011;28;19942;-61
2022/09/03 03:27:17;;;;;;;;;;;;;;;;;;5093290;28;19931;-62
2022/09/03 03:29:44;;;;;;;;;;;;;;;;;;5092713;28;19997;-63
2022/09/03 03:32:12;;;;;;;;;;;;;;;;;;5092100;28;20387;-63
2022/09/03 03:34:39;;;;;;;;;;;;;;;;;;5092945;28;19924;-63
2022/09/03 03:37:05;;;;;;;;;;;;;;;;;;5092963;28;19924;-63
2022/09/03 03:39:32;;;;;;;;;;;;;;;;;;5092613;28;19928;-63
2022/09/03 03:41:59;;;;;;;;;;;;;;;;;;5092743;28;19930;-63
2022/09/03 03:44:28;;;;;;;;;;;;;;;;;;5092569;28;19928;-61
2022/09/03 03:46:54;;;;;;;;;;;;;;;;;;5092853;28;19987;-63
2022/09/03 03:49:21;;;;;;;;;;;;;;;;;;5092361;28;20385;-63
2022/09/03 03:51:47;;;;;;;;;;;;;;;;;;5092683;28;19931;-62
2022/09/03 03:54:14;;;;;;;;;;;;;;;;;;5092711;28;19924;-63
2022/09/03 03:56:40;;;;;;;;;;;;;;;;;;5092738;28;20103;-63
2022/09/03 03:59:07;;;;;;;;;;;;;;;;;;5092396;28;19930;-63
2022/09/03 04:01:35;;;;;;;;;;;;;;;;;;5092477;28;19931;-63
2022/09/03 04:04:02;;;;;;;;;;;;;;;;;;5092490;28;19931;-63
2022/09/03 04:06:28;;;;;;;;;;;;;;;;;;5092722;28;19924;-61
2022/09/03 04:08:55;;;;;;;;;;;;;;;;;;5092510;28;19969;-62
2022/09/03 04:11:22;;;;;;;;;;;;;;;;;;5092103;28;19931;-63
2022/09/03 04:13:49;;;;;;;;;;;;;;;;;;5092427;28;19924;-62
2022/09/03 04:16:17;;;;;;;;;;;;;;;;;;5092291;28;20381;-62
2022/09/03 04:18:46;;;;;;;;;;;;;;;;;;5092240;28;19986;-63
2022/09/03 04:21:13;;;;;;;;;;;;;;;;;;5092145;28;19924;-62
2022/09/03 04:23:41;;;;;;;;;;;;;;;;;;5092449;28;19928;-63
2022/09/03 04:26:08;;;;;;;;;;;;;;;;;;5094944;28;19935;-62
2022/09/03 04:28:35;;;;;;;;;;;;;;;;;;5096429;28;19935;-62
2022/09/03 04:31:02;;;;;;;;;;;;;;;;;;5096388;28;20325;-62
2022/09/03 04:33:29;;;;;;;;;;;;;;;;;;5096368;28;20015;-63
2022/09/03 04:36:04;;;;;;;;;;;;;;;;;;5096805;28;19925;-64
2022/09/03 04:38:31;;;;;;;;;;;;;;;;;;5096663;28;19924;-63
2022/09/03 04:40:58;;;;;;;;;;;;;;;;;;5096278;28;19931;-63
2022/09/03 04:43:25;;;;;;;;;;;;;;;;;;5096107;28;19976;-62
2022/09/03 04:45:52;;;;;;;;;;;;;;;;;;5096209;28;19924;-60
2022/09/03 04:48:18;;;;;;;;;;;;;;;;;;5096193;28;19931;-61
2022/09/03 04:50:45;;;;;;;;;;;;;;;;;;5095952;28;19928;-62
2022/09/03 04:53:13;;;;;;;;;;;;;;;;;;5096049;28;19924;-62
2022/09/03 04:55:39;;;;;;;;;;;;;;;;;;5096014;28;19928;-61
2022/09/03 04:58:07;;;;;;;;;;;;;;;;;;5095977;28;19924;-62
2022/09/03 05:00:35;;;;;;;;;;;;;;;;;;5095748;28;19924;-64
2022/09/03 05:03:03;;;;;;;;;;;;;;;;;;5095647;28;19924;-61
2022/09/03 05:05:30;;;;;;;;;;;;;;;;;;5095759;28;19967;-62
2022/09/03 05:07:58;;;;;;;;;;;;;;;;;;5095909;28;19951;-62
2022/09/03 05:10:26;;;;;;;;;;;;;;;;;;5095663;28;20454;-60
2022/09/03 05:12:58;;;;;;;;;;;;;;;;;;5095652;28;19935;-62
2022/09/03 05:15:24;;;;;;;;;;;;;;;;;;5095732;28;20337;-62
2022/09/03 05:17:55;;;;;;;;;;;;;;;;;;5095465;28;20308;-62
2022/09/03 05:20:22;;;;;;;;;;;;;;;;;;5095522;28;19924;-63
2022/09/03 05:22:48;;;;;;;;;;;;;;;;;;5095722;28;19924;-63
2022/09/03 05:25:15;;;;;;;;;;;;;;;;;;5095630;28;19977;-63
2022/09/03 05:27:43;;;;;;;;;;;;;;;;;;5095625;28;19924;-62
2022/09/03 05:30:10;;;;;;;;;;;;;;;;;;5095250;28;19985;-63
2022/09/03 05:32:37;;;;;;;;;;;;;;;;;;5095310;28;20347;-64
2022/09/03 05:35:04;;;;;;;;;;;;;;;;;;5095225;28;19924;-63
2022/09/03 05:37:30;;;;;;;;;;;;;;;;;;5095193;28;20003;-60
2022/09/03 05:39:57;;;;;;;;;;;;;;;;;;5095228;28;19924;-61
2022/09/03 05:42:24;;;;;;;;;;;;;;;;;;5095290;28;19966;-61
2022/09/03 05:44:52;;;;;;;;;;;;;;;;;;5095053;28;20277;-59
2022/09/03 05:47:18;;;;;;;;;;;;;;;;;;5094977;28;19994;-60
2022/09/03 05:49:45;;;;;;;;;;;;;;;;;;5095300;28;19940;-63
2022/09/03 05:52:11;;;;;;;;;;;;;;;;;;5094969;28;19924;-61
2022/09/03 05:54:38;;;;;;;;;;;;;;;;;;5094720;28;19931;-62
2022/09/03 05:57:05;;;;;;;;;;;;;;;;;;5094851;28;19924;-60
2022/09/03 05:59:31;;;;;;;;;;;;;;;;;;5094597;28;19953;-64
2022/09/03 06:01:59;;;;;;;;;;;;;;;;;;5094737;28;19928;-62
2022/09/03 06:04:26;;;;;;;;;;;;;;;;;;5094660;28;19928;-60
2022/09/03 06:06:52;;;;;;;;;;;;;;;;;;5094988;28;19924;-63
2022/09/03 06:09:20;;;;;;;;;;;;;;;;;;5094246;28;19970;-61
2022/09/03 06:11:48;;;;;;;;;;;;;;;;;;5094854;28;19924;-63
2022/09/03 06:14:15;;;;;;;;;;;;;;;;;;5094762;28;19924;-61
2022/09/03 06:16:43;;;;;;;;;;;;;;;;;;5095666;28;19959;-63
2022/09/03 06:19:12;;;;;;;;;;;;;;;;;;5094401;28;20338;-60
2022/09/03 06:21:41;;;;;;;;;;;;;;;;;;5094597;28;19924;-62
2022/09/03 06:24:08;;;;;;;;;;;;;;;;;;5094531;28;19924;-61
2022/09/03 06:26:34;;;;;;;;;;;;;;;;;;5094365;28;19924;-60
2022/09/03 06:29:01;;;;;;;;;;;;;;;;;;5093912;28;19970;-59
2022/09/03 06:31:28;;;;;;;;;;;;;;;;;;5094183;28;19930;-62
2022/09/03 06:33:54;;;;;;;;;;;;;;;;;;5094056;28;19977;-62
2022/09/03 06:36:23;;;;;;;;;;;;;;;;;;5094121;28;19931;-61
2022/09/03 06:38:52;;;;;;;;;;;;;;;;;;5094000;28;19969;-61
2022/09/03 06:41:22;;;;;;;;;;;;;;;;;;5093759;28;19947;-60
2022/09/03 06:46:18;;;;;;;;;;;;;;;;;;5089598;28;19931;-57
2022/09/03 06:48:44;;;;;;;;;;;;;;;;;;5093567;28;20445;-58
2022/09/03 06:51:12;;;;;;;;;;;;;;;;;;5093839;28;20194;-56
2022/09/03 06:53:41;;;;;;;;;;;;;;;;;;5093824;28;19935;-57
2022/09/03 06:56:08;;;;;;;;;;;;;;;;;;5093565;28;20403;-60
2022/09/03 06:58:36;;;;;;;;;;;;;;;;;;5093506;28;19951;-54
2022/09/03 07:01:05;;;;;;;;;;;;;;;;;;5093533;28;20412;-53
2022/09/03 07:03:32;;;;;;;;;;;;;;;;;;5093354;28;19924;-58
2022/09/03 07:06:00;;;;;;;;;;;;;;;;;;5093726;28;19924;-56
2022/09/03 07:08:27;;;;;;;;;;;;;;;;;;5093460;28;19924;-58
2022/09/03 07:10:55;;;;;;;;;;;;;;;;;;5092953;28;19970;-53
2022/09/03 07:13:21;;;;;;;;;;;;;;;;;;5093341;28;20277;-56
2022/09/03 07:15:48;;;;;;;;;;;;;;;;;;5093335;28;19931;-56
2022/09/03 07:18:14;;;;;;;;;;;;;;;;;;5093022;28;19939;-55
2022/09/03 07:20:41;;;;;;;;;;;;;;;;;;5093210;28;19931;-57
2022/09/03 07:23:08;;;;;;;;;;;;;;;;;;5093448;28;19932;-58
2022/09/03 07:25:34;;;;;;;;;;;;;;;;;;5093171;28;19985;-57
2022/09/03 07:28:05;;;;;;;;;;;;;;;;;;5092963;28;19973;-58
2022/09/03 07:30:32;;;;;;;;;;;;;;;;;;5092755;28;20015;-57
2022/09/03 07:33:01;;;;;;;;;;;;;;;;;;5092796;28;19931;-60
2022/09/03 07:35:27;;;;;;;;;;;;;;;;;;5092830;28;19924;-59
2022/09/03 07:37:55;;;;;;;;;;;;;;;;;;5092581;28;19971;-58
2022/09/03 07:40:21;;;;;;;;;;;;;;;;;;5092717;28;19935;-57
2022/09/03 07:42:48;;;;;;;;;;;;;;;;;;5092723;28;20399;-55
2022/09/03 07:45:16;;;;;;;;;;;;;;;;;;5092804;28;19924;-54
2022/09/03 07:47:47;;;;;;;;;;;;;;;;;;5092750;28;19935;-58
2022/09/03 07:50:15;;;;;;;;;;;;;;;;;;5092716;28;20351;-56
2022/09/03 07:52:41;;;;;;;;;;;;;;;;;;5092542;28;19972;-58
2022/09/03 07:55:09;;;;;;;;;;;;;;;;;;5092586;28;19924;-58
2022/09/03 07:57:35;;;;;;;;;;;;;;;;;;5092552;28;19978;-57
2022/09/03 08:00:02;;;;;;;;;;;;;;;;;;5091404;28;19928;-54
2022/09/03 08:02:30;;;;;;;;;;;;;;;;;;5077828;28;20039;-57
2022/09/03 08:04:57;;;;;;;;;;;;;;;;;;5072286;28;20296;-56
2022/09/03 08:07:24;;;;;;;;;;;;;;;;;;5072620;28;20401;-56
2022/09/03 08:09:50;;;;;;;;;;;;;;;;;;5072205;28;19947;-54
2022/09/03 08:12:17;;;;;;;;;;;;;;;;;;5072359;28;20326;-58
2022/09/03 08:14:43;;;;;;;;;;;;;;;;;;5072061;28;20295;-55
2022/09/03 08:17:11;;;;;;;;;;;;;;;;;;5072276;28;19948;-55
2022/09/03 08:19:40;;;;;;;;;;;;;;;;;;5071640;28;20027;-57
2022/09/03 08:22:08;;;;;;;;;;;;;;;;;;5072014;28;19929;-58
2022/09/03 08:24:34;;;;;;;;;;;;;;;;;;5072103;28;19936;-58
2022/09/03 08:27:02;;;;;;;;;;;;;;;;;;5072136;28;19931;-58
2022/09/03 08:29:28;;;;;;;;;;;;;;;;;;5072278;28;20381;-56
2022/09/03 08:31:55;;;;;;;;;;;;;;;;;;5072001;28;19935;-58
2022/09/03 08:34:23;;;;;;;;;;;;;;;;;;5071858;28;20026;-52
2022/09/03 08:36:51;;;;;;;;;;;;;;;;;;5070875;28;19925;-59
2022/09/03 08:39:18;;;;;;;;;;;;;;;;;;5071977;28;19924;-55
2022/09/03 08:42:00;;;;;;;;;;;;;;;;;;5072060;28;19924;-54
2022/09/03 08:44:28;;;;;;;;;;;;;;;;;;5071735;28;19970;-60
2022/09/03 08:46:57;;;;;;;;;;;;;;;;;;5072486;28;19933;-56
2022/09/03 08:49:26;;;;;;;;;;;;;;;;;;5071727;28;20011;-57
2022/09/03 08:51:56;;;;;;;;;;;;;;;;;;5072074;28;20403;-57
2022/09/03 08:54:25;;;;;;;;;;;;;;;;;;5071778;28;19931;-55
2022/09/03 08:56:52;;;;;;;;;;;;;;;;;;5071726;28;19924;-55
2022/09/03 08:59:20;;;;;;;;;;;;;;;;;;5071423;28;20337;-53
2022/09/03 09:01:52;;;;;;;;;;;;;;;;;;5080714;28;19931;-54
2022/09/03 09:04:24;;;;;;;;;;;;;;;;;;5092041;28;19924;-54
2022/09/03 09:06:54;;;;;;;;;;;;;;;;;;5092030;28;20334;-57
2022/09/03 09:09:28;;;;;;;;;;;;;;;;;;5091761;28;20278;-55
2022/09/03 09:12:09;;;;;;;;;;;;;;;;;;5093870;28;19935;-57
2022/09/03 09:14:38;;;;;;;;;;;;;;;;;;5095480;28;19924;-55
2022/09/03 09:17:14;;;;;;;;;;;;;;;;;;5095738;28;19924;-56
2022/09/03 09:19:47;;;;;;;;;;;;;;;;;;5095262;28;19923;-59
2022/09/03 09:22:17;;;;;;;;;;;;;;;;;;5095294;28;19924;-53
2022/09/03 09:24:47;;;;;;;;;;;;;;;;;;5095255;28;19928;-57
2022/09/03 09:27:16;;;;;;;;;;;;;;;;;;5095283;28;19931;-57
2022/09/03 09:29:43;;;;;;;;;;;;;;;;;;5095134;28;19924;-56
2022/09/03 09:32:10;;;;;;;;;;;;;;;;;;5095373;28;19931;-56
2022/09/03 09:34:38;;;;;;;;;;;;;;;;;;5095039;28;19979;-55
2022/09/03 09:37:06;;;;;;;;;;;;;;;;;;5095076;28;19924;-58
2022/09/03 09:39:33;;;;;;;;;;;;;;;;;;5094738;28;20300;-55
2022/09/03 09:42:08;;;;;;;;;;;;;;;;;;5095327;28;20014;-56
2022/09/03 09:44:35;;;;;;;;;;;;;;;;;;5095121;28;19928;-54
2022/09/03 09:47:05;;;;;;;;;;;;;;;;;;5095355;28;19931;-58
2022/09/03 09:49:34;;;;;;;;;;;;;;;;;;5094647;28;19967;-59
2022/09/03 09:52:05;;;;;;;;;;;;;;;;;;5095020;28;19977;-57
2022/09/03 09:54:32;;;;;;;;;;;;;;;;;;5094912;28;20370;-59
2022/09/03 09:56:59;;;;;;;;;;;;;;;;;;5094890;28;19924;-59
2022/09/03 09:59:27;;;;;;;;;;;;;;;;;;5094831;28;19943;-57
2022/09/03 10:02:03;;;;;;;;;;;;;;;;;;5084862;28;19928;-56
2022/09/03 10:04:31;;;;;;;;;;;;;;;;;;5074770;28;20334;-56
2022/09/03 10:07:02;;;;;;;;;;;;;;;;;;5074341;28;19924;-57
2022/09/03 10:09:29;;;;;;;;;;;;;;;;;;5074061;28;19925;-60
2022/09/03 10:12:04;;;;;;;;;;;;;;;;;;5074375;28;19932;-56
2022/09/03 10:14:34;;;;;;;;;;;;;;;;;;5074970;28;20425;-59
2022/09/03 10:17:04;;;;;;;;;;;;;;;;;;5074365;28;20288;-57
2022/09/03 10:19:37;;;;;;;;;;;;;;;;;;5073997;28;19931;-55
2022/09/03 10:22:06;;;;;;;;;;;;;;;;;;5073837;28;20335;-59
2022/09/03 10:24:40;;;;;;;;;;;;;;;;;;5073389;28;19925;-56
2022/09/03 10:27:11;;;;;;;;;;;;;;;;;;5074210;28;19925;-54
2022/09/03 10:29:39;;;;;;;;;;;;;;;;;;5073928;28;20019;-59
2022/09/03 10:32:18;;;;;;;;;;;;;;;;;;5073858;28;19971;-57
2022/09/03 10:34:49;;;;;;;;;;;;;;;;;;5074011;28;19934;-57
2022/09/03 10:37:19;;;;;;;;;;;;;;;;;;5073855;28;19924;-59
2022/09/03 10:39:52;;;;;;;;;;;;;;;;;;5073394;28;20389;-60
2022/09/03 10:42:27;;;;;;;;;;;;;;;;;;5073781;28;19931;-58
2022/09/03 10:45:00;;;;;;;;;;;;;;;;;;5073668;28;19924;-58
2022/09/03 10:47:40;;;;;;;;;;;;;;;;;;5073879;28;19924;-57
2022/09/03 10:50:15;;;;;;;;;;;;;;;;;;5073222;28;20029;-56
2022/09/03 10:53:00;;;;;;;;;;;;;;;;;;5073441;28;20365;-57
2022/09/03 10:55:32;;;;;;;;;;;;;;;;;;5073339;28;19924;-58
2022/09/03 10:58:05;;;;;;;;;;;;;;;;;;5073549;28;19924;-57
2022/09/03 11:00:34;;;;;;;;;;;;;;;;;;5073244;28;19947;-57
2022/09/03 11:03:24;;;;;;;;;;;;;;;;;;5092304;28;20334;-61
2022/09/03 11:05:56;;;;;;;;;;;;;;;;;;5077956;28;19986;-56
2022/09/03 11:08:25;;;;;;;;;;;;;;;;;;5093154;28;19924;-56
2022/09/03 11:10:54;;;;;;;;;;;;;;;;;;5093122;28;19924;-58
2022/09/03 11:13:25;;;;;;;;;;;;;;;;;;5093327;28;20419;-57
2022/09/03 11:15:54;;;;;;;;;;;;;;;;;;5093597;28;19972;-60
2022/09/03 11:18:24;;;;;;;;;;;;;;;;;;5093235;28;19930;-59
2022/09/03 11:20:52;;;;;;;;;;;;;;;;;;5093168;28;19924;-54
2022/09/03 11:23:19;;;;;;;;;;;;;;;;;;5093266;28;20071;-56
2022/09/03 11:25:49;;;;;;;;;;;;;;;;;;5093220;28;19985;-58
2022/09/03 11:28:20;;;;;;;;;;;;;;;;;;5093127;28;20350;-58
2022/09/03 11:31:02;;;;;;;;;;;;;;;;;;5092659;28;19924;-55
2022/09/03 11:33:29;;;;;;;;;;;;;;;;;;5092857;28;19928;-56
2022/09/03 11:35:59;;;;;;;;;;;;;;;;;;5092750;28;19999;-58
2022/09/03 11:38:27;;;;;;;;;;;;;;;;;;5092998;28;20113;-59
2022/09/03 11:40:59;;;;;;;;;;;;;;;;;;5092660;28;19931;-60
2022/09/03 11:43:27;;;;;;;;;;;;;;;;;;5093177;28;19928;-58
2022/09/03 11:46:03;;;;;;;;;;;;;;;;;;5092619;28;20314;-53
2022/09/03 11:48:36;;;;;;;;;;;;;;;;;;5093241;28;19975;-59
2022/09/03 11:51:03;;;;;;;;;;;;;;;;;;5092340;28;19981;-57
2022/09/03 11:53:34;;;;;;;;;;;;;;;;;;5092612;28;20340;-57
2022/09/03 11:56:02;;;;;;;;;;;;;;;;;;5092882;28;19924;-57
2022/09/03 11:58:31;;;;;;;;;;;;;;;;;;5092157;28;20002;-57
2022/09/03 12:01:00;;;;;;;;;;;;;;;;;;5090425;28;19931;-58
2022/09/03 12:03:29;;;;;;;;;;;;;;;;;;5072376;28;19928;-56
2022/09/03 12:06:12;;;;;;;;;;;;;;;;;;5072167;28;20390;-53
2022/09/03 12:08:45;;;;;;;;;;;;;;;;;;5072331;28;19925;-56
2022/09/03 12:11:21;;;;;;;;;;;;;;;;;;5071804;28;19932;-54
2022/09/03 12:13:50;;;;;;;;;;;;;;;;;;5072023;28;19924;-58
2022/09/03 12:16:23;;;;;;;;;;;;;;;;;;5071924;28;20408;-59
2022/09/03 12:18:54;;;;;;;;;;;;;;;;;;5071974;28;19982;-53
2022/09/03 12:21:21;;;;;;;;;;;;;;;;;;5071911;28;20377;-54
2022/09/03 12:23:49;;;;;;;;;;;;;;;;;;5071911;28;19928;-60
2022/09/03 12:26:16;;;;;;;;;;;;;;;;;;5071931;28;19978;-56
2022/09/03 12:28:43;;;;;;;;;;;;;;;;;;5072158;28;20400;-59
2022/09/03 12:31:20;;;;;;;;;;;;;;;;;;5071785;28;19928;-59
2022/09/03 12:33:52;;;;;;;;;;;;;;;;;;5072135;28;19928;-55
2022/09/03 12:36:21;;;;;;;;;;;;;;;;;;5071997;28;20016;-58
2022/09/03 12:38:48;;;;;;;;;;;;;;;;;;5072075;28;20349;-58
2022/09/03 12:41:22;;;;;;;;;;;;;;;;;;5071711;28;20091;-58
2022/09/03 12:43:53;;;;;;;;;;;;;;;;;;5072107;28;20377;-58
2022/09/03 12:46:22;;;;;;;;;;;;;;;;;;5097875;22;19924;-63
2022/09/03 12:48:56;;;;;;;;;;;;;;;;;;5096729;28;19931;-63
2022/09/03 12:51:24;;;;;;;;;;;;;;;;;;5096241;28;19974;-63
2022/09/03 12:53:52;;;;;;;;;;;;;;;;;;5096424;28;20342;-63
2022/09/03 12:56:19;;;;;;;;;;;;;;;;;;5096461;28;20290;-63
2022/09/03 12:58:48;;;;;;;;;;;;;;;;;;5095933;28;20395;-62
2022/09/03 13:01:17;;;;;;;;;;;;;;;;;;5091317;28;19978;-63
2022/09/03 13:03:46;;;;;;;;;;;;;;;;;;5075605;28;20008;-61
2022/09/03 13:06:14;;;;;;;;;;;;;;;;;;5075534;28;20014;-62
2022/09/03 13:08:47;;;;;;;;;;;;;;;;;;5075482;28;19924;-62
2022/09/03 13:11:16;;;;;;;;;;;;;;;;;;5075413;28;20035;-62
2022/09/03 13:13:52;;;;;;;;;;;;;;;;;;5075508;28;19981;-62
2022/09/03 13:16:38;;;;;;;;;;;;;;;;;;5076352;28;20331;-62
2022/09/03 13:19:08;;;;;;;;;;;;;;;;;;5075755;28;19928;-62
2022/09/03 13:21:40;;;;;;;;;;;;;;;;;;5075728;28;19939;-62
2022/09/03 13:24:19;;;;;;;;;;;;;;;;;;5075791;28;19970;-62
2022/09/03 13:26:54;;;;;;;;;;;;;;;;;;5075719;28;19924;-62
2022/09/03 13:29:31;;;;;;;;;;;;;;;;;;5075749;28;19924;-62
2022/09/03 13:32:00;;;;;;;;;;;;;;;;;;5075747;28;19925;-62
2022/09/03 13:34:31;;;;;;;;;;;;;;;;;;5076430;28;20281;-62
2022/09/03 13:36:59;;;;;;;;;;;;;;;;;;5076045;28;19924;-62
2022/09/03 13:39:30;;;;;;;;;;;;;;;;;;5075452;28;19924;-61
2022/09/03 13:41:58;;;;;;;;;;;;;;;;;;5076502;28;19928;-61
2022/09/03 13:44:34;;;;;;;;;;;;;;;;;;5077028;28;19928;-62
2022/09/03 13:47:04;;;;;;;;;;;;;;;;;;5077236;28;19924;-61
2022/09/03 13:52:22;;;;;;;;;;;;;;;;;;5076329;28;20529;-62
2022/09/03 13:54:53;;;;;;;;;;;;;;;;;;5075835;28;19974;-62
2022/09/03 13:57:24;;;;;;;;;;;;;;;;;;5074198;28;19924;-62
2022/09/03 13:59:53;;;;;;;;;;;;;;;;;;5076795;28;19932;-62
2022/09/03 14:02:23;;;;;;;;;;;;;;;;;;5090062;28;20007;-63
2022/09/03 14:04:55;;;;;;;;;;;;;;;;;;5095961;28;19932;-62
2022/09/03 14:07:25;;;;;;;;;;;;;;;;;;5097797;28;20004;-62
2022/09/03 14:09:59;;;;;;;;;;;;;;;;;;5096854;28;19924;-62
2022/09/03 14:12:31;;;;;;;;;;;;;;;;;;5096547;28;20022;-62
2022/09/03 14:15:01;;;;;;;;;;;;;;;;;;5095135;28;19963;-62
2022/09/03 14:17:32;;;;;;;;;;;;;;;;;;5094546;28;20048;-62
2022/09/03 14:20:02;;;;;;;;;;;;;;;;;;5094861;28;19931;-62
2022/09/03 14:22:33;;;;;;;;;;;;;;;;;;5095068;28;20332;-61
2022/09/03 14:25:02;;;;;;;;;;;;;;;;;;5094776;28;20389;-63
2022/09/03 14:27:30;;;;;;;;;;;;;;;;;;5094114;28;20335;-61
2022/09/03 14:29:59;;;;;;;;;;;;;;;;;;5094150;28;20395;-63
2022/09/03 14:32:39;;;;;;;;;;;;;;;;;;5094174;28;20291;-62
2022/09/03 14:35:20;;;;;;;;;;;;;;;;;;5093988;28;19973;-62
2022/09/03 14:37:56;;;;;;;;;;;;;;;;;;5091564;28;19924;-61
2022/09/03 14:40:28;;;;;;;;;;;;;;;;;;5094335;28;20383;-61
2022/09/03 14:43:00;;;;;;;;;;;;;;;;;;5094092;28;19924;-62
2022/09/03 14:45:45;;;;;;;;;;;;;;;;;;5094078;28;19928;-61
2022/09/03 14:48:25;;;;;;;;;;;;;;;;;;5093932;28;19932;-61
2022/09/03 14:51:00;;;;;;;;;;;;;;;;;;5094879;28;19931;-62
2022/09/03 14:53:41;;;;;;;;;;;;;;;;;;5094036;28;19924;-62
2022/09/03 14:56:17;;;;;;;;;;;;;;;;;;5091547;28;20381;-62
2022/09/03 14:59:05;;;;;;;;;;;;;;;;;;5093870;28;19924;-63
2022/09/03 15:01:32;;;;;;;;;;;;;;;;;;5088866;28;19924;-61
2022/09/03 15:04:25;;;;;;;;;;;;;;;;;;5093933;28;20434;-62
2022/09/03 15:07:01;;;;;;;;;;;;;;;;;;5094161;28;19947;-61
2022/09/03 15:09:30;;;;;;;;;;;;;;;;;;5093077;28;19989;-62
2022/09/03 15:12:00;;;;;;;;;;;;;;;;;;5093605;28;19969;-62
2022/09/03 15:14:29;;;;;;;;;;;;;;;;;;5093529;28;19993;-63
2022/09/03 15:16:59;;;;;;;;;;;;;;;;;;5093455;28;19928;-63
2022/09/03 15:19:42;;;;;;;;;;;;;;;;;;5093435;28;19928;-63
2022/09/03 15:22:14;;;;;;;;;;;;;;;;;;5093750;28;19924;-62
2022/09/03 15:24:46;;;;;;;;;;;;;;;;;;5093746;28;20400;-62
2022/09/03 15:27:21;;;;;;;;;;;;;;;;;;5093513;28;19971;-62
2022/09/03 15:29:50;;;;;;;;;;;;;;;;;;5093378;28;19974;-61
2022/09/03 15:32:32;;;;;;;;;;;;;;;;;;5093283;28;19924;-61
2022/09/03 15:35:05;;;;;;;;;;;;;;;;;;5093255;28;19924;-62
2022/09/03 15:37:36;;;;;;;;;;;;;;;;;;5093440;28;19924;-62
2022/09/03 15:40:05;;;;;;;;;;;;;;;;;;5093145;28;20344;-62
2022/09/03 15:42:33;;;;;;;;;;;;;;;;;;5093100;28;20086;-62
2022/09/03 15:45:06;;;;;;;;;;;;;;;;;;5092830;28;19923;-63
2022/09/03 15:47:36;;;;;;;;;;;;;;;;;;5092986;28;19924;-61
2022/09/03 15:50:07;;;;;;;;;;;;;;;;;;5092958;28;20007;-63
2022/09/03 15:52:41;;;;;;;;;;;;;;;;;;5093134;28;19924;-61
2022/09/03 15:55:09;;;;;;;;;;;;;;;;;;5093373;28;19924;-60
2022/09/03 15:57:41;;;;;;;;;;;;;;;;;;5093139;28;19927;-63
2022/09/03 16:00:11;;;;;;;;;;;;;;;;;;5092865;28;19924;-61
2022/09/03 16:02:40;;;;;;;;;;;;;;;;;;5077162;28;19928;-62
2022/09/03 16:05:15;;;;;;;;;;;;;;;;;;5073053;28;20262;-62
2022/09/03 16:08:01;;;;;;;;;;;;;;;;;;5072615;28;19924;-63
2022/09/03 16:10:35;;;;;;;;;;;;;;;;;;5072605;28;20301;-62
2022/09/03 16:13:20;;;;;;;;;;;;;;;;;;5072496;28;20325;-62
2022/09/03 16:15:48;;;;;;;;;;;;;;;;;;5072526;28;19935;-62
2022/09/03 16:18:23;;;;;;;;;;;;;;;;;;5072649;28;20003;-62
2022/09/03 16:20:56;;;;;;;;;;;;;;;;;;5071423;28;19924;-62
2022/09/03 16:23:26;;;;;;;;;;;;;;;;;;5072383;28;19925;-62
2022/09/03 16:25:56;;;;;;;;;;;;;;;;;;5072471;28;20377;-61
2022/09/03 16:28:28;;;;;;;;;;;;;;;;;;5072529;28;20377;-63
2022/09/03 16:31:02;;;;;;;;;;;;;;;;;;5072189;28;19932;-62
2022/09/03 16:33:32;;;;;;;;;;;;;;;;;;5072317;28;19932;-62
2022/09/03 16:36:02;;;;;;;;;;;;;;;;;;5071988;28;19931;-63
2022/09/03 16:38:34;;;;;;;;;;;;;;;;;;5072295;28;19952;-63
2022/09/03 16:41:03;;;;;;;;;;;;;;;;;;5072022;28;19982;-63
2022/09/03 16:43:37;;;;;;;;;;;;;;;;;;5072361;28;19925;-62
2022/09/03 16:46:09;;;;;;;;;;;;;;;;;;5072346;28;20278;-62
2022/09/03 16:48:39;;;;;;;;;;;;;;;;;;5072969;28;19925;-62
2022/09/03 16:51:12;;;;;;;;;;;;;;;;;;5072228;28;19925;-62
2022/09/03 16:54:03;;;;;;;;;;;;;;;;;;5071985;28;19993;-62
2022/09/03 16:56:37;;;;;;;;;;;;;;;;;;5072182;28;20304;-62
2022/09/03 16:59:10;;;;;;;;;;;;;;;;;;5072075;28;19975;-62
2022/09/03 17:01:44;;;;;;;;;;;;;;;;;;5072190;28;19982;-62
2022/09/03 17:04:29;;;;;;;;;;;;;;;;;;5071990;28;19924;-62
2022/09/03 17:06:58;;;;;;;;;;;;;;;;;;5062194;28;20432;-61
2022/09/03 17:09:32;;;;;;;;;;;;;;;;;;5072118;28;19931;-62
2022/09/03 17:12:08;;;;;;;;;;;;;;;;;;5072221;28;19925;-62